Walterboro, SC (29488)

8:27 PM EDT on August 28, 2014 (GMT -0400)
Lowcountry Regional | Change Station
CLOSE
Current Station
Airport
Location: Walterboro,
Elevation: 102 ft
Nearby Weather Stations

Elev 102 ft 32.92 °N, 80.64 °W | Updated 12 minutes ago

Clear
Clear
81 °F
Feels Like 81 °F
N
4
Wind Variable Wind from SE

Today
High -- | Low -- °F
--% Chance of Precip.
Yesterday
High -- | Low -- °F
Precip. -- in
6:54 AM 7:52 PM
Waxing Crescent, 11% visible
Pressure 30.00 in
Visibility 10.0 miles
Clouds Clear
Heat Index 81 °F
Dew Point 59 °F
Humidity 48%
Rainfall 0.00 in
Snow Depth Not available.
UV 0 out of 12
Pollen 7.90 out of 12
Air Quality Not available.
Flu Activity Not available.
METAR KRBW 290015Z AUTO 14003KT 10SM CLR 27/15 A3000 RMK AO2

More Conditions Fewer Conditions

Pressure 30.00 in
Visibility 10.0 miles
Clouds Clear
Heat Index 81 °F
Dew Point 59 °F
Humidity 48%
Rainfall 0.00 in
Snow Depth Not available.
UV 0 out of 12
Pollen 7.90 out of 12
Air Quality Not available.
Flu Activity Not available.
METAR KRBW 290015Z AUTO 14003KT 10SM CLR 27/15 A3000 RMK AO2

More Conditions Fewer Conditions

10-Day Weather Forecast

Almanac

Astronomy

Aug. 28, 2014 Rise Set
Actual Time 6:54 AM EDT 7:52 PM EDT
Civil Twilight 6:29 AM EDT 8:17 PM EDT
Nautical Twilight 5:59 AM EDT 8:47 PM EDT
Astronomical Twilight 5:28 AM EDT 9:18 PM EDT
Moon 9:34 AM EDT (8/28) 9:28 PM EDT (8/28)
Length of Visible Light 13h 48m
Length of Day
12h 58m
Tomorrow will be 1m 55s shorter.
Waxing Crescent, 11% of the Moon is Illuminated
Today
Waxing Crescent
Sep 2
First Quarter
Sep 8
Full
Sep 15
Last Quarter
Sep 24
New

Today's Extremes

State Highs State Lows

Community

WunderPhotos

Upload Photos

1,748,105 photos uploaded!

Nearby

Snow Depth

Station Depth Elevation
No new snow has been reported.

Earthquake Activity

City Distance Mag. Time & Date
No recent earthquake activity has been reported nearby.
Minimum magnitude displayed is 2.5.

Coastal Water Temperatures

Place Temperature
No Stations Reporting

Nearby Weather Stations